Time;durP1;ratioP1;P1;durP2;ratioP2;P2;SDS_P1;SDS_P2;PMS_P1;PMS_P2;Temp;Humidity;BMP_temperature;BMP_pressure;BME280_temperature;BME280_humidity;BME280_pressure;Samples;Min_cycle;Max_cycle;Signal;HPM_P1;HPM_P2
2022/11/17 00:01:59;;;;;;;4.30;3.90;;;;;;;4.12;80.39;95787.92;1753003;81;25675;-74
2022/11/17 00:04:29;;;;;;;4.95;3.90;;;;;;;4.14;80.46;95784.53;1752656;80;26114;-75
2022/11/17 00:06:59;;;;;;;5.78;3.87;;;;;;;4.18;80.42;95783.09;1753132;80;25405;-74
2022/11/17 00:09:26;;;;;;;5.28;4.17;;;;;;;4.19;80.32;95787.41;1752892;80;26823;-74
2022/11/17 00:14:39;;;;;;;4.62;4.00;;;;;;;4.20;80.26;95783.19;1752815;81;25682;-75
2022/11/17 00:17:11;;;;;;;5.28;3.95;;;;;;;4.20;80.14;95795.72;1753044;80;25984;-75
2022/11/17 00:22:24;;;;;;;6.62;4.22;;;;;;;4.07;79.97;95805.92;1752888;81;27482;-76
2022/11/17 00:24:52;;;;;;;5.42;3.58;;;;;;;4.07;80.11;95799.77;1752861;81;25686;-77
2022/11/17 00:27:19;;;;;;;5.80;3.80;;;;;;;4.07;80.01;95805.92;1753102;80;25264;-74
2022/11/17 00:29:46;;;;;;;5.35;3.70;;;;;;;4.05;79.95;95808.49;1752971;81;26132;-74
2022/11/17 00:34:59;;;;;;;5.30;3.75;;;;;;;4.03;80.08;95804.70;1752978;81;27402;-76
2022/11/17 00:37:28;;;;;;;2.98;2.67;;;;;;;4.04;80.07;95809.01;1752909;80;25674;-75
2022/11/17 00:39:54;;;;;;;1.98;1.77;;;;;;;4.04;80.01;95809.01;1753018;80;25233;-75
2022/11/17 00:42:21;;;;;;;1.65;1.35;;;;;;;4.02;79.79;95807.06;1753074;81;26627;-75
2022/11/17 00:44:47;;;;;;;1.30;1.20;;;;;;;3.99;79.65;95810.95;1753220;80;25481;-76
2022/11/17 00:47:14;;;;;;;1.50;1.40;;;;;;;3.98;79.65;95809.86;1757806;81;27415;-75
2022/11/17 00:49:41;;;;;;;1.87;1.70;;;;;;;3.98;79.66;95813.32;1758222;81;25707;-74
2022/11/17 00:52:09;;;;;;;4.03;3.30;;;;;;;4.01;79.70;95805.92;1758212;80;25664;-78
2022/11/17 00:54:36;;;;;;;4.28;3.40;;;;;;;3.99;79.74;95809.63;1758033;80;25987;-75
2022/11/17 00:57:02;;;;;;;5.33;3.77;;;;;;;3.85;79.77;95808.04;1758184;80;25418;-76
2022/11/17 00:59:29;;;;;;;8.90;5.10;;;;;;;3.83;79.98;95811.94;1758152;81;28032;-77
2022/11/17 01:01:55;;;;;;;5.97;3.65;;;;;;;3.87;80.08;95816.63;1757916;81;25706;-78
2022/11/17 01:04:22;;;;;;;3.98;3.22;;;;;;;3.88;79.99;95810.78;1757956;80;25662;-75
2022/11/17 01:06:49;;;;;;;3.65;2.83;;;;;;;3.84;79.94;95809.06;1758121;81;26040;-76
2022/11/17 01:09:22;;;;;;;3.10;2.80;;;;;;;3.83;80.02;95803.93;1758254;80;25684;-75
2022/11/17 01:11:51;;;;;;;4.62;2.67;;;;;;;3.83;80.05;95799.41;1758195;81;27380;-75
2022/11/17 01:14:22;;;;;;;3.58;2.12;;;;;;;3.81;79.98;95801.46;1758022;81;25761;-76
2022/11/17 01:16:50;;;;;;;3.47;2.45;;;;;;;3.82;79.96;95799.62;1758413;81;25908;-74
2022/11/17 01:19:18;;;;;;;3.85;2.90;;;;;;;3.82;79.89;95797.77;1758281;80;26669;-77
2022/11/17 01:21:45;;;;;;;2.87;2.33;;;;;;;3.81;79.86;95800.13;1758259;80;25725;-75
2022/11/17 01:26:45;;;;;;;1.80;1.70;;;;;;;3.80;79.91;95803.83;1724063;82;25924;-75
2022/11/17 01:29:16;;;;;;;1.65;1.55;;;;;;;3.79;79.85;95794.17;1699895;83;25783;-76
2022/11/17 01:31:44;;;;;;;2.27;2.08;;;;;;;3.67;79.69;95791.83;1723832;83;26039;-76
2022/11/17 01:34:11;;;;;;;2.50;2.00;;;;;;;3.59;79.81;95793.39;1724065;83;25942;-75
2022/11/17 01:39:28;;;;;;;6.03;2.30;;;;;;;3.61;80.05;95796.67;1723579;83;25279;-76
2022/11/17 01:41:55;;;;;;;4.15;2.10;;;;;;;3.55;80.05;95790.30;1723774;83;25425;-75
2022/11/17 01:44:56;;;;;;;2.00;1.80;;;;;;;3.51;80.20;95787.73;1723733;83;26047;-77
2022/11/17 01:47:34;;;;;;;1.62;1.52;;;;;;;3.52;80.26;95786.71;1723197;83;25832;-76
2022/11/17 01:50:15;;;;;;;1.32;1.02;;;;;;;3.54;80.25;95787.33;1723978;83;27478;-75
2022/11/17 01:52:43;;;;;;;1.82;1.35;;;;;;;3.52;80.03;95782.71;1718218;83;25746;-77
2022/11/17 01:55:11;;;;;;;1.50;1.40;;;;;;;3.50;79.85;95786.63;1723988;83;26004;-75
2022/11/17 01:57:42;;;;;;;1.20;1.10;;;;;;;3.44;79.67;95782.11;1724013;83;26212;-74
2022/11/17 02:00:11;;;;;;;1.03;0.93;;;;;;;3.42;79.74;95786.31;1686271;85;25763;-78
2022/11/17 02:02:40;;;;;;;1.35;1.20;;;;;;;3.42;79.77;95788.16;1686037;85;27382;-75
2022/11/17 02:05:26;;;;;;;1.10;1.00;;;;;;;3.45;79.93;95787.75;1686004;85;25221;-75
2022/11/17 02:07:55;;;;;;;2.52;1.60;;;;;;;3.49;80.02;95791.66;1686076;85;25888;-75
2022/11/17 02:10:22;;;;;;;2.33;1.70;;;;;;;3.54;80.06;95803.84;1686047;85;26715;-75
2022/11/17 02:12:50;;;;;;;2.12;1.80;;;;;;;3.54;80.05;95798.00;1686029;85;25939;-77
2022/11/17 02:15:16;;;;;;;3.25;1.65;;;;;;;3.58;80.00;95797.08;1685929;85;27467;-75
2022/11/17 02:17:43;;;;;;;1.87;1.77;;;;;;;3.52;79.94;95793.89;1686012;85;25808;-77
2022/11/17 02:20:21;;;;;;;2.22;1.85;;;;;;;3.45;79.90;95803.25;1686091;84;25990;-74
2022/11/17 02:23:32;;;;;;;2.22;2.02;;;;;;;3.43;79.97;95801.80;1657468;86;26097;-74
2022/11/17 02:26:49;;;;;;;2.60;1.82;;;;;;;3.41;80.01;95802.52;1657441;86;25805;-75
2022/11/17 02:29:36;;;;;;;2.65;1.72;;;;;;;3.41;80.17;95808.67;1657878;86;27393;-74
2022/11/17 02:32:11;;;;;;;2.33;1.90;;;;;;;3.46;80.19;95801.41;1644205;87;25792;-76
2022/11/17 02:34:51;;;;;;;2.45;1.60;;;;;;;3.42;79.96;95810.83;1589687;89;25865;-74
2022/11/17 02:37:48;;;;;;;2.62;1.40;;;;;;;3.34;79.96;95809.20;1586925;89;26027;-78
2022/11/17 02:40:22;;;;;;;1.80;1.30;;;;;;;3.36;79.93;95815.67;1615587;88;25771;-74
2022/11/17 02:45:54;;;;;;;2.12;1.60;;;;;;;3.37;79.83;95798.64;1618891;87;25839;-76
2022/11/17 02:48:40;;;;;;;1.70;1.60;;;;;;;3.33;79.88;95800.06;1612258;88;25749;-74
2022/11/17 02:51:12;;;;;;;1.15;1.00;;;;;;;3.27;79.49;95801.69;1588346;90;26041;-74
2022/11/17 02:53:40;;;;;;;0.98;0.95;;;;;;;3.20;79.53;95796.38;1588312;90;25795;-75
2022/11/17 02:56:07;;;;;;;1.05;0.80;;;;;;;3.17;79.38;95794.11;1590905;88;27326;-74
2022/11/17 02:58:33;;;;;;;0.57;0.57;;;;;;;3.16;79.41;95784.47;1582422;90;25940;-77
2022/11/17 03:01:11;;;;;;;0.75;0.75;;;;;;;3.13;79.30;95779.56;1581099;90;25828;-75
2022/11/17 03:04:07;;;;;;;0.93;0.88;;;;;;;3.11;79.31;95775.45;1561457;91;26073;-79
2022/11/17 03:06:42;;;;;;;2.47;1.87;;;;;;;3.08;79.27;95769.19;1556427;90;25865;-75
2022/11/17 03:09:38;;;;;;;1.10;1.00;;;;;;;3.04;79.32;95757.28;1502023;95;28204;-74
2022/11/17 03:12:21;;;;;;;0.80;0.70;;;;;;;2.94;79.22;95762.20;1507741;93;25963;-74
2022/11/17 03:15:23;;;;;;;0.80;0.65;;;;;;;2.90;79.41;95762.60;1507913;93;25882;-76
2022/11/17 03:18:09;;;;;;;0.68;0.68;;;;;;;2.85;79.45;95765.08;1508111;93;26067;-74
2022/11/17 03:20:59;;;;;;;0.78;0.53;;;;;;;2.86;79.56;95763.23;1487809;96;25920;-78
2022/11/17 03:23:37;;;;;;;1.32;0.98;;;;;;;2.87;79.60;95762.21;1526914;93;28189;-76
2022/11/17 03:26:08;;;;;;;1.40;1.30;;;;;;;2.86;79.66;95772.05;1476237;96;25570;-78
2022/11/17 03:28:37;;;;;;;1.32;1.22;;;;;;;2.80;79.84;95772.84;1463503;96;25904;-75
2022/11/17 03:31:08;;;;;;;1.22;1.12;;;;;;;2.73;79.82;95773.87;1473257;94;25975;-74
2022/11/17 03:33:36;;;;;;;1.30;1.20;;;;;;;2.71;79.96;95779.91;1522176;94;25800;-74
2022/11/17 03:36:11;;;;;;;1.22;1.12;;;;;;;2.67;80.07;95778.66;1522213;94;28276;-77
2022/11/17 03:38:42;;;;;;;2.12;1.35;;;;;;;2.69;80.26;95781.95;1508759;95;26195;-74
2022/11/17 03:41:11;;;;;;;1.07;1.00;;;;;;;2.67;80.24;95781.32;1506315;95;33040;-74
2022/11/17 03:43:40;;;;;;;1.17;1.07;;;;;;;2.70;80.37;95783.08;1508632;95;26012;-74
2022/11/17 03:46:12;;;;;;;1.40;1.15;;;;;;;2.70;80.30;95787.59;1508734;93;25830;-79
2022/11/17 03:49:12;;;;;;;1.22;0.98;;;;;;;2.74;80.40;95792.83;1538396;92;27528;-75
2022/11/17 03:51:39;;;;;;;0.93;0.80;;;;;;;2.73;80.40;95800.52;1561215;90;25526;-79
2022/11/17 03:54:07;;;;;;;0.95;0.90;;;;;;;2.75;80.42;95799.80;1583218;90;25341;-74
2022/11/17 03:56:56;;;;;;;1.40;1.00;;;;;;;2.80;80.43;95797.34;1583169;90;26097;-75
2022/11/17 03:59:31;;;;;;;1.15;1.05;;;;;;;2.78;80.25;95802.86;1580001;90;25847;-76
2022/11/17 04:01:58;;;;;;;0.93;0.80;;;;;;;2.78;80.22;95804.70;1644489;86;27571;-76
2022/11/17 04:05:04;;;;;;;0.80;0.80;;;;;;;2.78;80.23;95801.53;1664592;86;25764;-74
2022/11/17 04:06:53;;;;;;;0.60;0.60;;;;;;;2.82;80.11;95801.95;1666583;85;26045;-74
2022/11/17 04:09:20;;;;;;;0.80;0.60;;;;;;;2.76;79.91;95806.78;1664772;86;26613;-75
2022/11/17 04:17:16;;;;;;;3.15;0.72;;;;;;;2.68;79.79;95814.42;1692327;84;25788;-80
2022/11/17 04:19:43;;;;;;;0.93;0.82;;;;;;;2.66;79.76;95808.98;1692470;84;25771;-77
2022/11/17 04:22:09;;;;;;;1.45;0.90;;;;;;;2.65;79.75;95818.02;1692433;84;26030;-76
2022/11/17 04:24:36;;;;;;;2.00;1.00;;;;;;;2.60;79.64;95823.12;1700349;83;25848;-77
2022/11/17 04:29:47;;;;;;;1.12;1.02;;;;;;;2.54;79.81;95821.55;1700727;84;25525;-76
2022/11/17 04:32:15;;;;;;;1.42;1.00;;;;;;;2.52;79.85;95822.28;1700712;84;25794;-78
2022/11/17 04:34:41;;;;;;;1.50;1.30;;;;;;;2.53;79.91;95816.45;1715065;80;26059;-76
2022/11/17 04:37:16;;;;;;;1.00;1.00;;;;;;;2.52;79.80;95823.62;1787128;80;25230;-76
2022/11/17 04:39:37;;;;;;;1.47;1.37;;;;;;;2.47;79.75;95821.23;1783636;80;27425;-76
2022/11/17 04:42:04;;;;;;;1.65;1.30;;;;;;;2.42;79.73;95823.66;1787336;80;25670;-75
2022/11/17 04:44:31;;;;;;;1.92;1.35;;;;;;;2.41;79.86;95828.19;1787509;80;25713;-76
2022/11/17 04:47:01;;;;;;;1.40;1.30;;;;;;;2.43;79.87;95828.78;1786021;80;25975;-76
2022/11/17 04:49:28;;;;;;;2.12;1.50;;;;;;;2.37;79.72;95825.60;1784955;80;25748;-76
2022/11/17 04:51:54;;;;;;;1.57;1.22;;;;;;;2.35;79.72;95826.30;1785298;80;27316;-76
2022/11/17 04:54:24;;;;;;;1.47;1.27;;;;;;;2.34;79.80;95833.98;1785255;80;25654;-76
2022/11/17 04:56:52;;;;;;;1.22;1.12;;;;;;;2.35;79.87;95832.14;1785267;80;25228;-78
2022/11/17 04:59:19;;;;;;;1.57;1.37;;;;;;;2.33;79.78;95835.00;1785227;80;25977;-76
2022/11/17 05:01:46;;;;;;;3.27;2.65;;;;;;;2.28;79.74;95828.13;1785230;80;25219;-76
2022/11/17 05:07:00;;;;;;;4.08;3.30;;;;;;;2.22;79.84;95832.90;1785016;80;25608;-75
2022/11/17 05:09:28;;;;;;;3.47;3.17;;;;;;;2.24;79.92;95836.19;1784826;80;37497;-75
2022/11/17 05:14:39;;;;;;;3.30;3.00;;;;;;;2.25;79.84;95833.02;1785034;80;25889;-75
2022/11/17 05:17:08;;;;;;;3.60;3.20;;;;;;;2.21;79.80;95835.25;1785114;80;26956;-75
2022/11/17 05:19:38;;;;;;;3.98;3.58;;;;;;;2.20;79.80;95832.78;1784899;80;25671;-75
2022/11/17 05:23:52;;;;;;;3.87;3.52;;;;;;;2.15;79.84;95830.73;1785289;80;25717;-79
2022/11/17 05:24:35;;;;;;;3.47;3.17;;;;;;;2.16;79.89;95828.38;1781261;80;26207;-76
2022/11/17 05:27:02;;;;;;;3.75;3.40;;;;;;;2.16;79.90;95835.86;1785448;80;25388;-80
2022/11/17 05:29:28;;;;;;;3.70;3.40;;;;;;;2.14;79.95;95833.08;1785948;80;28032;-76
2022/11/17 05:31:55;;;;;;;4.17;3.87;;;;;;;2.13;79.98;95846.07;1787888;80;25716;-76
2022/11/17 05:34:22;;;;;;;5.15;4.67;;;;;;;2.09;79.97;95832.83;1750891;81;25630;-77
2022/11/17 05:36:49;;;;;;;4.37;4.08;;;;;;;2.06;80.03;95831.89;1751340;81;25933;-76
2022/11/17 05:39:16;;;;;;;4.65;4.28;;;;;;;2.07;80.12;95825.55;1751100;81;25643;-75
2022/11/17 05:41:42;;;;;;;10.23;9.33;;;;;;;2.10;80.18;95835.81;1725199;82;28033;-76
2022/11/17 05:44:09;;;;;;;7.20;6.60;;;;;;;2.13;80.23;95829.59;1727080;82;25763;-77
2022/11/17 05:46:35;;;;;;;4.75;4.35;;;;;;;2.14;80.17;95827.75;1727968;82;25767;-76
2022/11/17 05:49:02;;;;;;;4.60;4.17;;;;;;;2.12;80.11;95829.78;1728736;82;26053;-76
2022/11/17 05:51:31;;;;;;;4.30;3.90;;;;;;;2.12;80.16;95831.94;1730158;82;25686;-76
2022/11/17 05:53:57;;;;;;;4.28;3.87;;;;;;;2.15;80.27;95832.87;1731966;82;28229;-76
2022/11/17 05:56:48;;;;;;;4.97;4.45;;;;;;;2.18;80.25;95839.63;1739292;82;25771;-76
2022/11/17 05:59:23;;;;;;;5.00;4.12;;;;;;;2.15;80.23;95842.70;1659556;85;25869;-76
2022/11/17 06:02:09;;;;;;;4.35;3.42;;;;;;;2.14;80.26;95845.05;1659083;85;26021;-79
2022/11/17 06:04:36;;;;;;;2.40;2.20;;;;;;;2.12;80.27;95848.41;1662233;84;25519;-76
2022/11/17 06:07:02;;;;;;;1.75;1.65;;;;;;;2.08;80.22;95841.33;1650645;86;27505;-76
2022/11/17 06:09:33;;;;;;;2.00;1.80;;;;;;;2.09;80.22;95845.63;1677174;84;25532;-77
2022/11/17 06:12:00;;;;;;;2.33;1.90;;;;;;;2.07;80.26;95845.51;1674245;84;25866;-76
2022/11/17 06:14:26;;;;;;;2.52;1.67;;;;;;;2.07;80.34;95848.99;1635755;87;25991;-79
2022/11/17 06:16:57;;;;;;;3.47;1.95;;;;;;;2.10;80.28;95855.77;1664249;86;25818;-76
2022/11/17 06:19:41;;;;;;;3.85;2.10;;;;;;;2.11;80.33;95846.77;1661101;86;27568;-75
2022/11/17 06:22:08;;;;;;;2.08;1.72;;;;;;;2.12;80.31;95851.90;1648888;87;25695;-75
2022/11/17 06:24:37;;;;;;;2.22;1.70;;;;;;;2.17;80.33;95860.64;1648673;87;25849;-78
2022/11/17 06:27:05;;;;;;;4.58;2.70;;;;;;;2.20;80.32;95856.23;1648764;87;26011;-75
2022/11/17 06:29:32;;;;;;;5.33;3.25;;;;;;;2.23;80.33;95858.51;1648896;87;25896;-76
2022/11/17 06:31:59;;;;;;;7.67;4.33;;;;;;;2.24;80.17;95861.48;1648829;87;27547;-73
2022/11/17 06:34:27;;;;;;;7.03;4.67;;;;;;;2.23;80.21;95864.34;1648832;87;25818;-75
2022/11/17 06:36:54;;;;;;;7.80;5.33;;;;;;;2.24;80.29;95860.66;1648949;87;25743;-75
2022/11/17 06:39:21;;;;;;;9.83;6.33;;;;;;;2.22;80.31;95862.19;1648712;87;26010;-74
2022/11/17 06:41:48;;;;;;;6.15;4.25;;;;;;;2.24;80.34;95858.82;1648896;87;25591;-74
2022/11/17 06:44:14;;;;;;;3.77;2.72;;;;;;;2.24;80.25;95864.15;1648932;87;27335;-74
2022/11/17 06:46:41;;;;;;;2.00;1.80;;;;;;;2.28;80.30;95862.74;1648740;87;25891;-74
2022/11/17 06:49:08;;;;;;;2.02;1.50;;;;;;;2.29;80.16;95864.39;1648749;86;25683;-74
2022/11/17 06:51:35;;;;;;;1.60;1.40;;;;;;;2.31;80.17;95870.31;1648994;87;26078;-74
2022/11/17 06:54:02;;;;;;;2.95;2.02;;;;;;;2.35;80.14;95874.74;1651231;85;25842;-76
2022/11/17 06:56:29;;;;;;;5.40;3.42;;;;;;;2.38;80.19;95876.52;1690166;84;27391;-75
2022/11/17 06:58:56;;;;;;;5.80;3.75;;;;;;;2.37;80.10;95872.20;1687682;85;25539;-76
2022/11/17 07:01:22;;;;;;;6.58;3.85;;;;;;;2.39;80.26;95872.83;1687667;85;25739;-73
2022/11/17 07:03:49;;;;;;;2.67;1.67;;;;;;;2.39;80.28;95875.50;1687554;85;26089;-76
2022/11/17 07:06:15;;;;;;;3.70;2.60;;;;;;;2.38;80.22;95865.86;1687688;85;25369;-74
2022/11/17 07:08:42;;;;;;;6.92;4.22;;;;;;;2.41;80.15;95862.81;1687577;85;27934;-75
2022/11/17 07:11:12;;;;;;;4.00;3.00;;;;;;;2.45;80.16;95870.70;1687675;85;25658;-75
2022/11/17 07:13:39;;;;;;;7.28;4.42;;;;;;;2.47;80.18;95874.50;1687601;85;25822;-73
2022/11/17 07:16:13;;;;;;;6.42;4.67;;;;;;;2.50;80.19;95874.11;1683024;85;26622;-74
2022/11/17 07:18:41;;;;;;;10.32;5.62;;;;;;;2.53;80.21;95873.21;1723113;82;25855;-74
2022/11/17 07:21:12;;;;;;;6.35;4.00;;;;;;;2.54;80.26;95873.49;1731384;82;28027;-74
2022/11/17 07:23:41;;;;;;;9.63;5.42;;;;;;;2.56;80.19;95875.14;1731264;82;25569;-73
2022/11/17 07:26:08;;;;;;;15.32;8.33;;;;;;;2.59;80.09;95880.08;1731621;82;25798;-75
2022/11/17 07:28:35;;;;;;;21.75;12.03;;;;;;;2.58;79.92;95883.25;1731636;82;25992;-76
2022/11/17 07:31:04;;;;;;;21.42;13.98;;;;;;;2.61;79.90;95890.03;1737177;82;25727;-73
2022/11/17 07:33:31;;;;;;;8.43;5.72;;;;;;;2.61;79.94;95890.85;1753146;81;27437;-74
2022/11/17 07:36:05;;;;;;;5.70;3.60;;;;;;;2.63;79.81;95887.99;1736671;82;25762;-74
2022/11/17 07:38:34;;;;;;;6.22;3.67;;;;;;;2.64;79.66;95886.47;1654782;86;25972;-73
2022/11/17 07:41:01;;;;;;;9.38;5.15;;;;;;;2.67;79.73;95893.22;1662716;86;26008;-77
2022/11/17 07:43:28;;;;;;;4.87;2.98;;;;;;;2.67;79.72;95890.55;1708790;83;25971;-73
2022/11/17 07:45:55;;;;;;;2.98;2.10;;;;;;;2.67;79.71;95885.22;1708744;83;27381;-77
2022/11/17 07:48:22;;;;;;;3.58;2.42;;;;;;;2.63;79.49;95894.14;1708775;83;25687;-72
2022/11/17 07:50:48;;;;;;;3.50;2.60;;;;;;;2.63;79.47;95895.98;1707269;83;25823;-73
2022/11/17 07:53:15;;;;;;;4.10;3.05;;;;;;;2.62;79.43;95897.00;1704970;83;26785;-75
2022/11/17 07:55:41;;;;;;;7.50;4.40;;;;;;;2.63;79.38;95901.31;1705189;83;25803;-75
2022/11/17 07:58:08;;;;;;;14.93;7.83;;;;;;;2.62;79.29;95903.66;1704139;83;27444;-74
2022/11/17 08:00:35;;;;;;;12.55;7.45;;;;;;;2.62;79.37;95910.32;1704957;83;25612;-74
2022/11/17 08:03:03;;;;;;;11.57;6.85;;;;;;;2.61;79.29;95902.84;1706106;83;25324;-73
2022/11/17 08:05:33;;;;;;;8.35;5.03;;;;;;;2.56;79.29;95907.92;1701693;83;26891;-73
2022/11/17 08:07:59;;;;;;;4.83;3.58;;;;;;;2.57;79.30;95900.25;1706297;83;25958;-73
2022/11/17 08:10:30;;;;;;;3.40;2.85;;;;;;;2.54;79.21;95898.80;1700185;83;28222;-72
2022/11/17 08:12:56;;;;;;;3.72;2.30;;;;;;;2.54;79.24;95892.14;1705924;82;25880;-73
2022/11/17 08:15:23;;;;;;;2.08;1.60;;;;;;;2.58;79.34;95901.89;1706092;83;25805;-73
2022/11/17 08:17:55;;;;;;;5.70;3.65;;;;;;;2.59;79.15;95897.39;1693354;83;26646;-73
2022/11/17 08:20:23;;;;;;;7.67;4.17;;;;;;;2.59;79.20;95896.06;1681156;85;26828;-75
2022/11/17 08:22:51;;;;;;;3.87;2.70;;;;;;;2.60;79.27;95895.05;1678265;85;28144;-72
2022/11/17 08:25:20;;;;;;;3.25;2.35;;;;;;;2.58;79.17;95891.75;1678078;85;25672;-72
2022/11/17 08:27:50;;;;;;;4.70;2.25;;;;;;;2.58;79.17;95897.08;1675566;85;25907;-73
2022/11/17 08:30:14;;;;;;;2.15;1.72;;;;;;;2.60;79.23;95900.37;1677984;85;26788;-72
2022/11/17 08:32:51;;;;;;;3.33;2.00;;;;;;;2.62;79.30;95899.16;1680818;85;26016;-73
2022/11/17 08:35:21;;;;;;;4.22;2.40;;;;;;;2.64;79.34;95896.30;1704149;81;28311;-72
2022/11/17 08:37:48;;;;;;;3.30;1.87;;;;;;;2.66;79.29;95899.56;1738998;81;25753;-73
2022/11/17 08:40:16;;;;;;;3.45;2.10;;;;;;;2.67;79.29;95906.53;1732255;81;25728;-74
2022/11/17 08:42:43;;;;;;;4.20;2.60;;;;;;;2.70;79.28;95898.98;1723991;81;26796;-73
2022/11/17 08:45:13;;;;;;;3.70;2.35;;;;;;;2.71;79.09;95899.80;1723646;83;25704;-72
2022/11/17 08:47:39;;;;;;;3.83;2.67;;;;;;;2.74;79.17;95902.08;1683181;83;26847;-72
2022/11/17 08:50:08;;;;;;;4.87;2.75;;;;;;;2.76;79.10;95906.70;1698116;83;25887;-75
2022/11/17 08:52:34;;;;;;;3.22;2.33;;;;;;;2.80;79.15;95911.92;1685192;85;25990;-73
2022/11/17 08:55:01;;;;;;;1.87;1.55;;;;;;;2.84;79.27;95914.00;1699451;84;25982;-72
2022/11/17 08:57:32;;;;;;;2.75;1.92;;;;;;;2.86;79.07;95919.13;1686674;85;26228;-75
2022/11/17 08:59:58;;;;;;;7.10;3.33;;;;;;;2.85;78.88;95921.48;1699685;84;27454;-72
2022/11/17 09:02:25;;;;;;;7.12;3.95;;;;;;;2.84;78.67;95923.84;1686530;85;25731;-72
2022/11/17 09:04:52;;;;;;;5.50;2.72;;;;;;;2.82;78.63;95927.20;1699649;84;25847;-74
2022/11/17 09:07:18;;;;;;;6.12;3.15;;;;;;;2.82;78.67;95927.20;1686643;85;26263;-71
2022/11/17 09:09:45;;;;;;;5.92;3.62;;;;;;;2.83;78.69;95930.19;1699593;84;25977;-75
2022/11/17 09:12:11;;;;;;;6.53;3.50;;;;;;;2.82;78.57;95936.53;1686701;85;28171;-72
2022/11/17 09:14:38;;;;;;;9.48;4.00;;;;;;;2.81;78.62;95938.37;1699447;84;25644;-73
2022/11/17 09:17:04;;;;;;;9.78;3.90;;;;;;;2.84;78.68;95939.83;1704199;83;25821;-72
2022/11/17 09:19:31;;;;;;;3.62;2.47;;;;;;;2.85;78.71;95937.48;1736919;82;26447;-72
2022/11/17 09:21:58;;;;;;;4.67;2.75;;;;;;;2.85;78.62;95930.30;1736599;82;25902;-73
2022/11/17 09:24:25;;;;;;;5.58;2.98;;;;;;;2.83;78.40;95930.19;1736642;82;27478;-74
2022/11/17 09:26:56;;;;;;;4.55;2.58;;;;;;;2.82;78.42;95925.88;1736829;82;25704;-72
2022/11/17 09:29:22;;;;;;;4.20;2.70;;;;;;;2.79;78.42;95926.27;1680385;85;25855;-75
2022/11/17 09:31:49;;;;;;;3.17;2.27;;;;;;;2.76;78.22;95924.02;1680314;85;26795;-72
2022/11/17 09:34:16;;;;;;;2.52;1.95;;;;;;;2.74;78.24;95923.39;1695989;84;25789;-71
2022/11/17 09:36:43;;;;;;;2.10;1.75;;;;;;;2.78;78.30;95927.28;1710392;83;27538;-72
2022/11/17 09:39:09;;;;;;;2.70;2.00;;;;;;;2.77;78.16;95922.49;1695818;84;25733;-74
2022/11/17 09:41:46;;;;;;;5.72;3.55;;;;;;;2.76;78.09;95925.35;1710535;83;25826;-72
2022/11/17 09:44:18;;;;;;;9.78;6.45;;;;;;;2.78;78.13;95920.62;1672309;84;26006;-76
2022/11/17 09:47:08;;;;;;;7.47;5.08;;;;;;;2.79;78.14;95927.09;1706979;83;25683;-73
2022/11/17 09:50:24;;;;;;;5.85;4.22;;;;;;;2.82;78.14;95925.88;1694167;84;27397;-72
2022/11/17 09:53:15;;;;;;;8.55;6.92;;;;;;;2.83;78.24;95932.85;1725169;82;25806;-72
2022/11/17 09:55:45;;;;;;;5.85;3.58;;;;;;;2.83;78.18;95929.67;1725480;82;26608;-72
2022/11/17 09:58:46;;;;;;;5.85;3.33;;;;;;;2.81;78.15;95925.05;1725862;83;26484;-72
2022/11/17 10:01:18;;;;;;;5.47;2.90;;;;;;;2.80;77.95;95927.91;1690932;84;25336;-72
2022/11/17 10:03:46;;;;;;;;;;;;;;;2.81;78.16;95922.38;1728113;83;28275;-72
2022/11/17 10:06:20;;;;;;;5.05;3.47;;;;;;;2.82;78.08;95925.88;1725694;82;25733;-72
2022/11/17 10:09:34;;;;;;;3.30;2.52;;;;;;;2.84;78.22;95923.84;1690726;84;25309;-71
2022/11/17 10:12:24;;;;;;;2.58;2.10;;;;;;;2.85;78.20;95910.83;1725571;82;26001;-72
2022/11/17 10:14:52;;;;;;;19.70;10.78;;;;;;;2.85;77.88;95904.98;1725615;83;25698;-75
2022/11/17 10:17:18;;;;;;;11.97;7.67;;;;;;;2.81;77.69;95909.06;1725655;82;27350;-74
2022/11/17 10:19:45;;;;;;;4.47;3.10;;;;;;;2.83;77.87;95900.87;1725506;82;25888;-72
2022/11/17 10:22:20;;;;;;;3.87;3.10;;;;;;;2.84;77.88;95903.34;1725547;82;25753;-72
2022/11/17 10:24:53;;;;;;;4.10;3.12;;;;;;;2.85;77.80;95904.16;1637300;87;26052;-72
2022/11/17 10:27:29;;;;;;;3.22;2.92;;;;;;;2.83;77.69;95907.53;1668688;84;25761;-73
2022/11/17 10:30:06;;;;;;;3.60;3.20;;;;;;;2.84;77.67;95913.17;1671120;85;27439;-72
2022/11/17 10:32:40;;;;;;;4.75;3.47;;;;;;;2.81;77.67;95918.90;1670935;85;25864;-72
2022/11/17 10:35:25;;;;;;;6.50;3.60;;;;;;;2.82;77.70;95920.55;1667767;85;25984;-72
2022/11/17 10:40:44;;;;;;;2.35;2.15;;;;;;;2.79;77.55;95924.42;1564574;91;25826;-72
2022/11/17 10:43:16;;;;;;;6.20;3.50;;;;;;;2.81;77.62;95925.05;1564692;91;27411;-73
2022/11/17 10:45:50;;;;;;;3.75;2.72;;;;;;;2.80;77.63;95926.07;1564691;91;34705;-74
2022/11/17 10:48:24;;;;;;;6.58;3.98;;;;;;;2.80;77.54;95923.41;1541480;93;25778;-72
2022/11/17 10:50:58;;;;;;;3.55;2.75;;;;;;;2.83;77.69;95920.34;1541244;92;25996;-75
2022/11/17 10:53:37;;;;;;;4.28;2.77;;;;;;;2.85;77.59;95913.49;1541477;93;25830;-72
2022/11/17 10:56:15;;;;;;;2.83;2.42;;;;;;;2.87;77.62;95920.78;1541481;93;28314;-72
2022/11/17 11:01:43;;;;;;;2.85;2.30;;;;;;;2.88;77.41;95925.09;1516896;94;26029;-72
2022/11/17 11:04:38;;;;;;;5.65;2.70;;;;;;;2.85;77.29;95934.81;1516760;94;26765;-75
2022/11/17 11:07:21;;;;;;;3.15;2.60;;;;;;;2.85;77.33;95932.14;1516637;94;25941;-73
2022/11/17 11:10:10;;;;;;;3.50;2.72;;;;;;;2.87;77.31;95938.11;1472102;97;27503;-72
2022/11/17 11:12:58;;;;;;;3.47;2.50;;;;;;;2.82;77.16;95940.53;1386854;103;25611;-72
2022/11/17 11:15:29;;;;;;;3.55;2.90;;;;;;;2.82;77.16;95940.53;1308140;107;25927;-72
2022/11/17 11:17:56;;;;;;;4.37;3.22;;;;;;;2.81;77.27;95945.03;1296058;109;26027;-72
2022/11/17 11:20:58;;;;;;;4.53;2.95;;;;;;;2.80;77.19;95937.23;1294078;110;25972;-72
2022/11/17 11:23:47;;;;;;;2.67;2.30;;;;;;;2.78;77.05;95937.94;1294406;110;27719;-73
2022/11/17 11:26:43;;;;;;;3.37;2.75;;;;;;;2.77;76.97;95942.98;1294943;109;25871;-74
2022/11/17 11:29:45;;;;;;;3.35;2.47;;;;;;;2.77;77.11;95949.14;1293169;110;25980;-72
2022/11/17 11:32:35;;;;;;;2.50;2.20;;;;;;;2.76;77.07;95944.83;1293411;110;26109;-77
2022/11/17 11:35:42;;;;;;;17.10;11.45;;;;;;;2.79;77.17;95947.58;1340014;106;25936;-73
2022/11/17 11:38:56;;;;;;;5.80;4.58;;;;;;;2.81;77.12;95933.55;1370093;104;27652;-73
2022/11/17 11:41:43;;;;;;;4.25;3.20;;;;;;;2.81;77.06;95928.22;1377058;104;25860;-72
2022/11/17 11:44:33;;;;;;;5.35;3.22;;;;;;;2.81;76.92;95916.23;1380727;101;25976;-75
2022/11/17 11:47:30;;;;;;;5.58;3.45;;;;;;;2.84;76.99;95923.84;1453466;97;26020;-73
2022/11/17 11:50:14;;;;;;;4.62;3.08;;;;;;;2.83;76.98;95912.86;1499846;93;25836;-76
2022/11/17 11:52:49;;;;;;;4.00;2.90;;;;;;;2.84;77.06;95915.84;1522197;93;27533;-72
2022/11/17 11:55:27;;;;;;;7.90;4.70;;;;;;;2.90;77.03;95916.36;1516616;93;25780;-73
2022/11/17 11:58:14;;;;;;;9.83;6.58;;;;;;;2.93;77.00;95916.48;1495034;94;25953;-72
2022/11/17 12:00:43;;;;;;;9.35;5.28;;;;;;;2.94;76.98;95914.95;1513383;94;26623;-73
2022/11/17 12:03:21;;;;;;;32.60;13.13;;;;;;;2.96;76.93;95919.58;1514977;94;25858;-73
2022/11/17 12:08:41;;;;;;;21.57;10.32;;;;;;;2.95;76.92;95941.92;1594700;86;25857;-71
2022/11/17 12:13:57;;;;;;;12.43;8.05;;;;;;;2.94;76.67;95928.28;1601893;89;26032;-71
2022/11/17 12:16:35;;;;;;;5.40;3.47;;;;;;;2.93;76.72;95921.30;1593692;90;25776;-75
2022/11/17 12:19:23;;;;;;;7.45;4.92;;;;;;;2.93;76.46;95926.62;1545429;92;28236;-72
2022/11/17 12:21:55;;;;;;;6.62;4.83;;;;;;;2.89;76.26;95934.73;1543740;92;26737;-72
2022/11/17 12:24:30;;;;;;;6.58;4.90;;;;;;;2.90;76.48;95940.34;1543774;92;25484;-75
2022/11/17 12:27:34;;;;;;;5.78;4.97;;;;;;;2.90;76.52;95947.02;1540617;92;26827;-73
2022/11/17 12:30:04;;;;;;;5.87;4.87;;;;;;;2.90;76.52;95945.68;1543768;92;25905;-73
2022/11/17 12:32:52;;;;;;;5.42;4.30;;;;;;;2.89;76.43;95948.06;1543660;92;27420;-72
2022/11/17 12:35:28;;;;;;;8.03;4.92;;;;;;;2.88;76.27;95953.08;1543613;92;25865;-74
2022/11/17 12:38:17;;;;;;;35.03;17.67;;;;;;;2.86;76.28;95944.45;1495470;95;25912;-72
2022/11/17 12:40:55;;;;;;;25.95;14.73;;;;;;;2.87;76.36;95944.77;1502590;95;25992;-72
2022/11/17 12:43:28;;;;;;;18.87;11.97;;;;;;;2.86;76.23;95940.45;1495428;95;25867;-72
2022/11/17 12:46:09;;;;;;;;;;;;;;;2.83;76.08;95948.33;1502451;94;27433;-73
2022/11/17 12:48:40;;;;;;;7.72;6.67;;;;;;;2.83;76.04;95951.50;1491932;95;25862;-72
2022/11/17 12:51:30;;;;;;;6.15;4.95;;;;;;;2.80;76.24;95943.39;1510903;93;25903;-72